Kezdőlap
METAR-TAF:

METAR-TAF

Repülőterek :

Pattaya-Rayong, Thaiföld

földrajzi szélesség: 12-38N, földrajzi hosszúság: 101-21E, magasság: 3 m

Jelenlegi meteorológiai megfigyelések

A jelentés 16 perccel ezelõtt készült, 16:00 UTC
Nyugat-délnyugati szél 9 kt
Hőmérséklet 28°C
Páratartalom 84%
Légköri nyomás 1006 hPa
Látótávolság 10 km, vagy több
Kevés felhő 2000 lábon
Szórványos felhőzet 10000 lábon

METAR: VTBU 161600Z 25009KT 9999 FEW020 SCT100 28/25 Q1006 NOSIG

Idő: 23:16 (16:16 UTC)

Előrejelzés

A jelentés 5 órával és 16 perccel ezelõtt készült, 11:00 UTC
Az előrejelzés 16-én 12 óra UTC és 17-én 12 óra UTC között érvényes
Nyugat-délnyugati szél 6 kt
Látótávolság 10 km, vagy több
Kevés felhő 2000 lábon
Szórványos felhőzet 10000 lábon

TAF: VTBU 161100Z 1612/1712 25006KT 9999 FEW020 SCT100

Meteorológiai megfigyelések és előrejelzések több, mint 4000 repülőtéren (METAR és TAF jelentéseket).

A térképen piros és sárga pontok jelzik az elérhető meteorológiai állomásokat.

Mozgassa az egeret a pont fölött, hogy megjelenjen az állomás neve.

Azután kattintson az időjárási megfigyelések és előrejelzések megtekintéséhez.

A térkép megváltoztatása: kattintson a fekete keresztel jelölt zöld gombra ráközelítéshez, a vonallal jelölt zöld gombra távolításhoz, vagy a zöld nyilakra a szomszédos térképek eléréséhez.


METAR-TAF: